Olmsted, Illinois
Current Conditions -  °F | °C
As of 1:15 PM on Thursday 27 Nov 2014 (Local Time) from KCIR Reporting Station
Overcast Overcast  
Wind Chill: 30°   Ceiling: 2300
Heat Index: 36°   Visibility: 10mi
Dew Point: 28°   Wind: 8mph
Humidity: 73%   Direction: 320°NW
Pressure: 30.48"   Gusts: NA
Location:  37.18°N, 89.09°W
Report Text: KCIR 271915Z AUTO 32007KT 10SM OVC023 02/M02 A3048 RMK AO2 T00221022
Loading
Personal Weather Stations






























Interactive Weather Map New forecast layout! Learn more

10-Day Weather Forecast

Advertisements
Track Severe Weather on mobile